This is the latest recevied weather packets stored in our database for station/object HK4K-15. If no packets are shown the sender has not sent any weather packets the latest 10 day(s).
| Time | Temp. | Humidity | Pressure | Rain* | Wind** | Luminosity | Snow |
|---|---|---|---|---|---|---|---|
| 1788194722 | 27.22° C | 49% | 1014 hPa | 0 mm | - | - | - |
| 1788193702 | 27.22° C | 46% | 1015 hPa | 0 mm | - | - | - |
| 1788193300 | 18.33° C | 84% | 1015 hPa | 0 mm | - | - | - |
| 1788192280 | 18.89° C | 84% | 1015 hPa | 0 mm | - | - | - |
| 1788190239 | 20° C | 84% | 1015 hPa | 0 mm | - | - | - |
| 1788189219 | 17.78° C | 81% | 1015 hPa | 0 mm | - | - | - |
| 1788188198 | 18.33° C | 81% | 1015 hPa | 0 mm | - | - | - |
| 1788187178 | 18.89° C | 81% | 1015 hPa | 0 mm | - | - | - |
| 1788186157 | 19.44° C | 81% | 1016 hPa | 0 mm | - | - | - |
| 1788185137 | 20° C | 81% | 1016 hPa | 0 mm | - | - | - |
| 1788184116 | 20° C | 82% | 1016 hPa | 0 mm | - | - | - |
| 1788182075 | 17.22° C | 96% | 1016 hPa | 0 mm | - | - | - |
| 1788181055 | 17.22° C | 97% | 1016 hPa | 0 mm | - | - | - |
| 1788180034 | 17.22° C | 97% | 1016 hPa | 0 mm | - | - | - |
| 1788179014 | 17.22° C | 97% | 1017 hPa | 0 mm | - | - | - |
| 1788177994 | 17.22° C | 97% | 1017 hPa | 0 mm | - | - | - |
| 1788176973 | 17.22° C | 96% | 1017 hPa | 0 mm | - | - | - |
| 1788175952 | 17.22° C | 95% | 1017 hPa | 0 mm | - | - | - |
| 1788174932 | 17.22° C | 93% | 1017 hPa | 0 mm | - | - | - |
| 1788173912 | 17.78° C | 91% | 1017 hPa | 0 mm | - | - | - |
| 1788172891 | 17.78° C | 92% | 1017 hPa | 0 mm | - | - | - |
| 1788171871 | 17.78° C | 92% | 1017 hPa | 0 mm | - | - | - |
| 1788170850 | 17.78° C | 93% | 1016 hPa | 0 mm | - | - | - |
| 1788169830 | 17.22° C | 94% | 1016 hPa | 0 mm | - | - | - |
| 1788168809 | 17.78° C | 93% | 1016 hPa | 0 mm | - | - | - |
* Rain latest hour (hover to see other rain measurements)
** Current wind speed in m/s (hover to see current wind gust speed)